METAR Data
IDs: Format: Raw Decoded Include TAF

Data at: 2011 UTC 13 Aug 2020

KNYL 131957Z VRB03KT 7SM SCT120 43/11 A2975 RMK AO2 SLP070 T04330111 $
KNYL 131857Z 35003KT 7SM SCT150 44/12 A2977 RMK AO2 SLP076 T04390117 $
KNYL 131757Z VRB03KT 7SM FEW150 41/12 A2978 RMK AO2 SLP082 T04110117 10411 20322 50003 $
KNYL 131657Z 29004KT 7SM FEW150 39/13 A2979 RMK AO2 SLP084 T03890133 $
KNYL 131557Z 28005KT 7SM FEW150 37/13 A2979 RMK AO2 SLP082 T03670133 $
KNYL 131457Z 27004KT 7SM FEW170 35/13 A2978 RMK AO2 SLP079 T03500133 53014 $
KNYL 131357Z 24003KT 7SM FEW140 SCT200 33/13 A2977 RMK AO2 SLP075 FIRST T03280133 $
KNYL 131257Z AUTO 24003KT 10SM CLR 32/16 A2975 RMK AO2 SLP068 T03220161 $
KNYL 131157Z AUTO 23003KT 10SM CLR 33/16 A2974 RMK AO2 SLP065 T03330161 10361 20328 $
KNYL 131057Z AUTO 20004KT 10SM CLR 34/16 A2973 RMK AO2 SLP064 T03390161 $
KNYL 130957Z AUTO 00000KT 10SM CLR 34/17 A2973 RMK AO2 SLP063 T03440167 $
KNYL 130857Z AUTO 27003KT 10SM CLR 34/17 A2974 RMK AO2 SLP066 T03390172 $
KNYL 130757Z AUTO 16004KT 10SM CLR 35/16 A2974 RMK AO2 SLP068 T03500161 $
KNYL 130657Z AUTO 15004KT 10SM CLR 36/16 A2975 RMK AO2 SLP069 T03560161 404390306 $
KNYL 130557Z AUTO 13004KT 10SM CLR 36/17 A2974 RMK AO2 SLP068 T03610172 10439 20361 51013 $
KNYL 130457Z AUTO 24004KT 7SM CLR 37/17 A2974 RMK AO2 SLP067 LAST T03670172 $
KNYL 130357Z 25005KT 7SM BKN150 38/17 A2973 RMK AO2 SLP062 T03830167 $
KNYL 130257Z 24008KT 7SM BKN150 39/16 A2971 RMK AO2 SLP055 T03940161 53003 $
KNYL 130157Z 20009KT 7SM BKN150 42/16 A2969 RMK AO2 SLP050 T04170161 $
KNYL 130057Z 22006KT 7SM SCT130 43/16 A2968 RMK AO2 SLP047 T04280156 $
KNYL 122357Z 17003KT 7SM FEW130 43/17 A2970 RMK AO2 SLP052 T04330167 10439 20389 56021 $
KNYL 122257Z AUTO 31005KT 7SM FEW130 43/17 A2971 RMK AO2 SLP057 T04330172 $
KNYL 122157Z VRB05KT 7SM FEW060 FEW120 43/18 A2973 RMK AO2 SLP065 T04330178 $
KNYL 122057Z 15005KT 7SM FEW130 42/18 A2976 RMK AO2 SLP073 T04220183 58020 $
KNYL 121957Z VRB03KT 7SM FEW120 41/19 A2978 RMK AO2 SLP081 T04060189 $
KNYL 121857Z VRB06KT 7SM FEW150 40/19 A2981 RMK AO2 SLP089 T04000194 $
KNYL 121757Z 18009KT 7SM CLR 39/19 A2982 RMK AO2 SLP093 T03890189 10389 20306 50003 $
KNYL 121657Z 18006KT 7SM FEW180 37/18 A2982 RMK AO2 SLP094 T03720178 $
KNYL 121557Z 16008KT 7SM CLR 36/19 A2982 RMK AO2 SLP093 T03610189 $
KNYL 121457Z 14009KT 7SM FEW160 34/21 A2981 RMK AO2 SLP090 T03390211 51014 $
KNYL 121357Z 13009KT 7SM CLR 32/21 A2980 RMK AO2 SLP088 FIRST T03220206 $
KNYL 121257Z AUTO 16006KT 10SM CLR 31/20 A2979 RMK AO2 SLP083 T03110200 $
KNYL 121157Z AUTO 10004KT 10SM CLR 32/21 A2977 RMK AO2 SLP077 T03170211 10333 20306 55001 $
KNYL 121057Z AUTO 15005KT 10SM CLR 31/22 A2977 RMK AO2 SLP076 T03110217 $
KNYL 120957Z AUTO 18003KT 10SM CLR 32/20 A2977 RMK AO2 SLP078 T03170200 $
KNYL 120857Z AUTO 19003KT 10SM CLR 32/18 A2977 RMK AO2 SLP077 T03220183 50003 $